createdAt,value
2023-02-26T00:02:14.515Z,28.90
2023-02-26T00:08:16.916Z,25.52
2023-02-26T00:14:20.093Z,28.50
2023-02-26T00:20:22.436Z,27.20
2023-02-26T00:26:27.192Z,33.38
2023-02-26T00:32:31.359Z,31.77
2023-02-26T00:38:35.377Z,31.55
2023-02-26T00:44:38.071Z,31.83
2023-02-26T00:50:51.926Z,34.10
2023-02-26T00:56:55.221Z,30.70
2023-02-26T01:02:58.367Z,32.65
2023-02-26T01:09:06.265Z,33.15
2023-02-26T01:15:09.006Z,30.00
2023-02-26T01:27:26.549Z,28.98
2023-02-26T01:33:32.332Z,26.55
2023-02-26T01:39:45.721Z,26.33
2023-02-26T01:46:09.711Z,24.35
2023-02-26T01:52:30.923Z,26.65
2023-02-26T01:58:36.563Z,25.25
2023-02-26T02:04:40.864Z,24.08
2023-02-26T02:10:45.916Z,22.35
2023-02-26T02:17:07.984Z,24.65
2023-02-26T02:23:31.285Z,21.10
2023-02-26T02:30:07.275Z,19.27
2023-02-26T02:36:17.687Z,21.52
2023-02-26T02:42:34.724Z,19.50
2023-02-26T02:48:49.538Z,21.05
2023-02-26T02:54:59.118Z,20.60
2023-02-26T03:01:06.788Z,20.67
2023-02-26T03:07:09.650Z,21.20
2023-02-26T03:19:46.188Z,21.42
2023-02-26T03:26:11.459Z,20.90
2023-02-26T03:32:30.104Z,20.27
2023-02-26T03:38:38.038Z,20.30
2023-02-26T03:44:47.511Z,17.50
2023-02-26T03:50:57.921Z,18.25
2023-02-26T03:57:19.481Z,15.65
2023-02-26T04:04:02.471Z,15.40
2023-02-26T04:10:06.833Z,19.27
2023-02-26T04:16:10.244Z,19.38
2023-02-26T04:28:16.336Z,21.25
2023-02-26T04:34:18.913Z,23.17
2023-02-26T04:40:21.253Z,22.25
2023-02-26T04:46:23.945Z,23.95
2023-02-26T04:52:27.140Z,27.73
2023-02-26T04:58:29.804Z,24.20
2023-02-26T05:04:38.957Z,20.15
2023-02-26T05:10:41.157Z,19.52
2023-02-26T05:16:43.606Z,19.30
2023-02-26T05:22:46.557Z,17.67
2023-02-26T05:28:49.531Z,19.13
2023-02-26T05:34:51.876Z,17.75
2023-02-26T05:40:58.276Z,17.60
2023-02-26T05:47:00.814Z,17.33
2023-02-26T05:53:03.009Z,17.10
2023-02-26T05:59:05.334Z,16.50
2023-02-26T06:05:08.127Z,19.02
2023-02-26T06:11:10.286Z,18.30
2023-02-26T06:17:12.390Z,18.57
2023-02-26T06:23:17.168Z,18.27
2023-02-26T06:29:21.034Z,21.85
2023-02-26T06:35:23.654Z,22.60
2023-02-26T06:41:26.627Z,23.17
2023-02-26T06:47:29.439Z,24.55
2023-02-26T06:59:34.031Z,25.90
2023-02-26T07:05:36.839Z,26.17
2023-02-26T07:17:41.668Z,28.17
2023-02-26T07:23:44.189Z,31.63
2023-02-26T07:35:49.345Z,29.25
2023-02-26T07:41:51.833Z,31.00
2023-02-26T07:47:54.470Z,34.78
2023-02-26T07:59:59.147Z,25.75
2023-02-26T08:06:01.569Z,27.02
2023-02-26T08:12:04.006Z,23.95
2023-02-26T08:18:06.578Z,23.77
2023-02-26T08:24:08.907Z,26.55
2023-02-26T08:30:12.272Z,29.58
2023-02-26T08:36:15.059Z,30.77
2023-02-26T08:48:30.222Z,28.05
2023-02-26T08:54:32.552Z,28.13
2023-02-26T09:00:35.168Z,28.90
2023-02-26T09:06:37.575Z,26.52
2023-02-26T09:12:40.068Z,27.05
2023-02-26T09:18:42.496Z,28.38
2023-02-26T09:24:44.866Z,26.42
2023-02-26T09:30:47.519Z,28.30
2023-02-26T09:36:50.004Z,27.38
2023-02-26T09:49:16.813Z,27.88
2023-02-26T09:55:36.993Z,25.23
2023-02-26T10:01:44.331Z,25.58
2023-02-26T10:08:04.524Z,23.48
2023-02-26T10:14:19.232Z,18.23
2023-02-26T10:20:30.659Z,12.10
2023-02-26T10:26:39.614Z,5.60
2023-02-26T10:32:55.875Z,5.53
2023-02-26T10:39:04.911Z,5.40
2023-02-26T10:45:24.285Z,5.38
2023-02-26T10:51:38.711Z,5.53
2023-02-26T10:57:47.999Z,7.10
2023-02-26T11:03:59.261Z,7.50
2023-02-26T11:10:01.660Z,4.93
2023-02-26T11:16:15.337Z,6.22
2023-02-26T11:22:19.129Z,6.32
2023-02-26T11:28:25.904Z,7.63
2023-02-26T11:34:30.571Z,6.68
2023-02-26T11:40:41.010Z,7.40
2023-02-26T11:46:55.437Z,5.68
2023-02-26T11:53:05.576Z,7.20
2023-02-26T11:59:17.999Z,5.28
2023-02-26T12:11:31.935Z,5.80
2023-02-26T12:18:06.648Z,6.13
2023-02-26T12:25:07.533Z,5.47
2023-02-26T12:31:31.866Z,5.63
2023-02-26T12:38:08.021Z,7.07
2023-02-26T12:44:47.364Z,4.85
2023-02-26T12:51:02.971Z,6.70
2023-02-26T12:57:17.596Z,6.43
2023-02-26T13:03:22.737Z,7.95
2023-02-26T13:09:53.892Z,6.88
2023-02-26T13:16:17.252Z,7.78
2023-02-26T13:22:24.968Z,7.10
2023-02-26T13:28:42.223Z,5.55
2023-02-26T13:35:05.253Z,6.50
2023-02-26T13:41:19.806Z,8.38
2023-02-26T13:47:36.524Z,8.38
2023-02-26T13:53:41.371Z,6.72
2023-02-26T14:00:13.317Z,6.72
2023-02-26T14:06:26.539Z,6.65
2023-02-26T14:12:36.302Z,5.70
2023-02-26T14:18:51.731Z,5.03
2023-02-26T14:24:58.448Z,5.60
2023-02-26T14:31:11.480Z,6.47
2023-02-26T14:37:18.171Z,5.72
2023-02-26T14:43:28.971Z,7.88
2023-02-26T14:49:37.742Z,6.60
2023-02-26T14:55:48.148Z,22.70
2023-02-26T15:02:11.868Z,6.63
2023-02-26T15:08:44.770Z,11.85
2023-02-26T15:14:49.889Z,10.60
2023-02-26T15:21:10.017Z,7.35
2023-02-26T15:27:17.242Z,7.35
2023-02-26T15:33:21.273Z,8.07
2023-02-26T15:39:25.310Z,5.80
2023-02-26T15:45:40.857Z,7.53
2023-02-26T15:51:45.230Z,6.05
2023-02-26T15:57:48.612Z,8.68
2023-02-26T16:03:54.668Z,8.85
2023-02-26T16:09:57.788Z,7.68
2023-02-26T16:16:11.977Z,6.43
2023-02-26T16:22:28.232Z,9.02
2023-02-26T16:28:38.214Z,8.57
2023-02-26T16:34:50.442Z,7.07
2023-02-26T16:41:06.721Z,7.10
2023-02-26T16:47:10.858Z,5.63
2023-02-26T16:53:21.081Z,7.03
2023-02-26T16:59:25.652Z,5.78
2023-02-26T17:05:35.261Z,5.97
2023-02-26T17:11:44.613Z,12.90
2023-02-26T17:17:47.696Z,16.58
2023-02-26T17:23:50.080Z,18.00
2023-02-26T17:29:52.371Z,15.63
2023-02-26T17:35:59.577Z,14.60
2023-02-26T17:42:02.024Z,14.18
2023-02-26T17:48:04.729Z,15.88
2023-02-26T17:54:07.061Z,14.57
2023-02-26T18:00:15.367Z,14.57
2023-02-26T18:06:17.773Z,13.98
2023-02-26T18:12:23.891Z,11.75
2023-02-26T18:18:26.892Z,13.60
2023-02-26T18:30:35.070Z,13.75
2023-02-26T18:36:40.033Z,12.63
2023-02-26T18:42:42.665Z,12.25
2023-02-26T18:48:45.028Z,11.73
2023-02-26T18:54:47.500Z,11.10
2023-02-26T19:00:50.067Z,12.07
2023-02-26T19:06:52.588Z,11.15
2023-02-26T19:12:54.764Z,12.75
2023-02-26T19:18:57.043Z,12.05
2023-02-26T19:24:59.263Z,12.98
2023-02-26T19:31:01.804Z,12.07
2023-02-26T19:37:04.525Z,12.57
2023-02-26T19:49:10.169Z,10.48
2023-02-26T19:55:14.597Z,9.75
2023-02-26T20:01:16.987Z,9.20
2023-02-26T20:07:19.280Z,9.68
2023-02-26T20:13:22.683Z,9.65
2023-02-26T20:19:24.991Z,10.05
2023-02-26T20:25:28.854Z,9.95
2023-02-26T20:31:31.747Z,9.93
2023-02-26T20:37:34.425Z,10.63
2023-02-26T20:43:36.645Z,7.80
2023-02-26T20:49:39.166Z,7.68
2023-02-26T20:55:41.687Z,9.27
2023-02-26T21:01:45.218Z,7.90
2023-02-26T21:07:48.069Z,11.30
2023-02-26T21:13:50.265Z,6.97
2023-02-26T21:19:52.738Z,7.10
2023-02-26T21:25:55.228Z,6.38
2023-02-26T21:31:59.022Z,5.82
2023-02-26T21:38:01.368Z,5.68
2023-02-26T21:44:03.905Z,5.00
2023-02-26T21:50:07.580Z,5.88
2023-02-26T21:56:10.306Z,10.30
2023-02-26T22:02:12.877Z,7.97
2023-02-26T22:08:15.083Z,5.15
2023-02-26T22:14:17.404Z,3.70
2023-02-26T22:20:19.994Z,4.32
2023-02-26T22:26:22.324Z,4.65
2023-02-26T22:32:24.562Z,4.50
2023-02-26T22:38:27.372Z,4.28
2023-02-26T22:44:29.588Z,4.68
2023-02-26T22:50:31.897Z,4.53
2023-02-26T22:56:34.006Z,4.03
2023-02-26T23:02:36.506Z,4.55
2023-02-26T23:08:39.116Z,5.18
2023-02-26T23:20:43.709Z,5.68
2023-02-26T23:26:46.076Z,5.93
2023-02-26T23:32:48.780Z,6.38
2023-02-26T23:38:51.240Z,7.03
2023-02-26T23:44:53.612Z,7.35
2023-02-26T23:50:56.263Z,6.50
2023-02-26T23:56:58.719Z,5.45
